createdAt,value
2019-04-06T00:00:56.672Z,13.40
2019-04-06T00:01:56.673Z,13.40
2019-04-06T00:02:56.707Z,15.70
2019-04-06T00:03:56.701Z,15.70
2019-04-06T00:04:56.774Z,15.70
2019-04-06T00:05:56.774Z,15.70
2019-04-06T00:06:56.662Z,15.70
2019-04-06T00:07:56.686Z,15.70
2019-04-06T00:08:56.770Z,15.70
2019-04-06T00:09:56.699Z,15.70
2019-04-06T00:10:56.782Z,15.70
2019-04-06T00:11:56.777Z,15.70
2019-04-06T00:12:56.688Z,14.20
2019-04-06T00:13:56.727Z,14.20
2019-04-06T00:14:56.778Z,14.20
2019-04-06T00:15:56.726Z,14.20
2019-04-06T00:16:56.766Z,14.20
2019-04-06T00:17:56.654Z,14.20
2019-04-06T00:18:56.713Z,14.20
2019-04-06T00:19:56.661Z,14.20
2019-04-06T00:20:56.705Z,14.20
2019-04-06T00:21:56.670Z,14.20
2019-04-06T00:22:56.779Z,13.80
2019-04-06T00:23:56.765Z,13.80
2019-04-06T00:24:56.695Z,13.80
2019-04-06T00:25:56.772Z,13.80
2019-04-06T00:26:56.808Z,13.80
2019-04-06T00:27:56.765Z,13.80
2019-04-06T00:28:56.821Z,13.80
2019-04-06T00:29:56.717Z,13.80
2019-04-06T00:30:56.798Z,13.80
2019-04-06T00:31:56.748Z,13.80
2019-04-06T00:32:56.732Z,13.00
2019-04-06T00:33:56.751Z,13.00
2019-04-06T00:34:56.712Z,13.00
2019-04-06T00:35:56.709Z,13.00
2019-04-06T00:36:56.754Z,13.00
2019-04-06T00:37:56.844Z,13.00
2019-04-06T00:38:56.670Z,13.00
2019-04-06T00:39:56.733Z,13.00
2019-04-06T00:40:56.690Z,13.00
2019-04-06T00:41:56.668Z,13.00
2019-04-06T00:42:56.749Z,13.50
2019-04-06T00:43:56.736Z,13.50
2019-04-06T00:44:56.735Z,13.50
2019-04-06T00:45:56.771Z,13.50
2019-04-06T00:46:56.802Z,13.50
2019-04-06T00:47:56.811Z,13.50
2019-04-06T00:48:56.793Z,13.50
2019-04-06T00:49:56.782Z,13.50
2019-04-06T00:50:56.799Z,13.50
2019-04-06T00:51:56.743Z,13.50
2019-04-06T00:52:56.709Z,13.30
2019-04-06T00:53:56.774Z,13.30
2019-04-06T00:54:56.786Z,13.30
2019-04-06T00:55:56.709Z,13.30
2019-04-06T00:56:56.711Z,13.30
2019-04-06T00:57:56.714Z,13.30
2019-04-06T00:58:56.785Z,13.30
2019-04-06T00:59:56.713Z,13.30
2019-04-06T01:00:56.781Z,13.30
2019-04-06T01:01:56.720Z,13.30
2019-04-06T01:02:56.807Z,12.80
2019-04-06T01:03:56.871Z,12.80
2019-04-06T01:04:56.758Z,12.80
2019-04-06T01:05:56.911Z,12.80
2019-04-06T01:06:56.807Z,12.80
2019-04-06T01:07:56.756Z,12.80
2019-04-06T01:08:56.742Z,12.80
2019-04-06T01:09:56.754Z,12.80
2019-04-06T01:10:56.777Z,12.80
2019-04-06T01:11:56.812Z,12.80
2019-04-06T01:12:56.708Z,13.00
2019-04-06T01:13:56.781Z,13.00
2019-04-06T01:14:56.730Z,13.00
2019-04-06T01:15:56.792Z,13.00
2019-04-06T01:16:56.795Z,13.00
2019-04-06T01:17:56.725Z,13.00
2019-04-06T01:18:56.794Z,13.00
2019-04-06T01:19:56.811Z,13.00
2019-04-06T01:20:56.804Z,13.00
2019-04-06T01:21:56.703Z,13.00
2019-04-06T01:22:56.731Z,13.10
2019-04-06T01:23:56.843Z,13.10
2019-04-06T01:24:56.733Z,13.10
2019-04-06T01:26:06.701Z,13.10
2019-04-06T01:26:56.797Z,13.10
2019-04-06T01:27:56.732Z,13.10
2019-04-06T01:28:56.803Z,13.10
2019-04-06T01:29:56.805Z,13.10
2019-04-06T01:30:56.807Z,13.10
2019-04-06T01:31:56.738Z,13.10
2019-04-06T01:32:56.863Z,13.70
2019-04-06T01:33:58.943Z,13.70
2019-04-06T01:34:56.809Z,13.70
2019-04-06T01:35:56.745Z,13.70
2019-04-06T01:36:56.807Z,13.70
2019-04-06T01:37:56.748Z,13.70
2019-04-06T01:38:56.746Z,13.70
2019-04-06T01:39:56.812Z,13.70
2019-04-06T01:40:56.761Z,13.70
2019-04-06T01:41:56.816Z,13.70
2019-04-06T01:42:56.769Z,14.70
2019-04-06T01:43:56.788Z,14.70
2019-04-06T01:44:56.763Z,14.70
2019-04-06T01:45:56.794Z,14.70
2019-04-06T01:46:56.780Z,14.70
2019-04-06T01:47:56.738Z,14.70
2019-04-06T01:48:56.714Z,14.70
2019-04-06T01:49:56.859Z,14.70
2019-04-06T01:50:56.746Z,14.70
2019-04-06T01:51:56.721Z,14.70
2019-04-06T01:52:56.770Z,15.30
2019-04-06T01:53:56.854Z,15.30
2019-04-06T01:54:59.020Z,15.30
2019-04-06T01:55:56.794Z,15.30
2019-04-06T01:56:56.883Z,15.30
2019-04-06T01:57:56.832Z,15.30
2019-04-06T01:58:56.842Z,15.30
2019-04-06T01:59:56.776Z,15.30
2019-04-06T02:00:56.788Z,15.30
2019-04-06T02:01:56.908Z,15.30
2019-04-06T02:02:56.783Z,16.20
2019-04-06T02:03:56.780Z,16.20
2019-04-06T02:04:56.732Z,16.20
2019-04-06T02:05:56.802Z,16.20
2019-04-06T02:06:56.807Z,16.20
2019-04-06T02:07:56.737Z,16.20
2019-04-06T02:08:56.906Z,16.20
2019-04-06T02:09:56.775Z,16.20
2019-04-06T02:10:56.829Z,16.20
2019-04-06T02:11:56.833Z,16.20
2019-04-06T02:12:56.767Z,15.70
2019-04-06T02:13:56.834Z,15.70
2019-04-06T02:14:56.779Z,15.70
2019-04-06T02:15:56.838Z,15.70
2019-04-06T02:16:56.835Z,15.70
2019-04-06T02:17:56.840Z,15.70
2019-04-06T02:18:56.778Z,15.70
2019-04-06T02:19:56.767Z,15.70
2019-04-06T02:20:56.835Z,15.70
2019-04-06T02:21:56.852Z,15.70
2019-04-06T02:22:56.805Z,15.10
2019-04-06T02:23:56.807Z,15.10
2019-04-06T02:24:56.825Z,15.10
2019-04-06T02:25:56.793Z,15.10
2019-04-06T02:26:56.791Z,15.10
2019-04-06T02:27:56.840Z,15.10
2019-04-06T02:28:56.865Z,15.10
2019-04-06T02:29:56.841Z,15.10
2019-04-06T02:30:56.752Z,15.10
2019-04-06T02:31:56.759Z,15.10
2019-04-06T02:32:56.848Z,17.00
2019-04-06T02:33:56.850Z,17.00
2019-04-06T02:34:56.788Z,17.00
2019-04-06T02:35:56.859Z,17.00
2019-04-06T02:36:56.811Z,17.00
2019-04-06T02:37:56.854Z,17.00
2019-04-06T02:38:56.795Z,17.00
2019-04-06T02:39:56.855Z,17.00
2019-04-06T02:40:56.852Z,17.00
2019-04-06T02:41:56.790Z,17.00
2019-04-06T02:42:56.898Z,15.50
2019-04-06T02:43:56.890Z,15.50
2019-04-06T02:44:56.823Z,15.50
2019-04-06T02:45:57.053Z,15.50
2019-04-06T02:46:56.884Z,15.50
2019-04-06T02:47:56.895Z,15.50
2019-04-06T02:48:56.814Z,15.50
2019-04-06T02:49:56.817Z,15.50
2019-04-06T02:50:56.904Z,15.50
2019-04-06T02:51:56.803Z,15.50
2019-04-06T02:52:56.861Z,15.90
2019-04-06T02:53:56.802Z,15.90
2019-04-06T02:54:56.865Z,15.90
2019-04-06T02:55:56.975Z,15.90
2019-04-06T02:56:56.901Z,15.90
2019-04-06T02:57:56.896Z,15.90
2019-04-06T02:58:56.884Z,15.90
2019-04-06T02:59:56.867Z,15.90
2019-04-06T03:00:56.846Z,15.90
2019-04-06T03:01:56.868Z,15.90
2019-04-06T03:02:56.887Z,16.00
2019-04-06T03:03:56.868Z,16.00
2019-04-06T03:04:56.882Z,16.00
2019-04-06T03:05:57.178Z,16.00
2019-04-06T03:06:56.789Z,16.00
2019-04-06T03:07:56.979Z,16.00
2019-04-06T03:08:56.869Z,16.00
2019-04-06T03:09:56.825Z,16.00
2019-04-06T03:10:56.869Z,16.00
2019-04-06T03:11:56.803Z,16.00
2019-04-06T03:12:56.940Z,15.70
2019-04-06T03:13:56.852Z,15.70
2019-04-06T03:14:56.879Z,15.70
2019-04-06T03:15:56.927Z,15.70
2019-04-06T03:16:56.802Z,15.70
2019-04-06T03:17:56.881Z,15.70
2019-04-06T03:18:56.786Z,15.70
2019-04-06T03:19:56.977Z,15.70
2019-04-06T03:20:56.867Z,15.70
2019-04-06T03:21:56.906Z,15.70
2019-04-06T03:22:56.907Z,14.60
2019-04-06T03:23:57.006Z,14.60
2019-04-06T03:24:56.855Z,14.60
2019-04-06T03:25:56.861Z,14.60
2019-04-06T03:27:02.060Z,14.60
2019-04-06T03:27:56.799Z,14.60
2019-04-06T03:28:56.860Z,14.60
2019-04-06T03:29:59.006Z,14.60
2019-04-06T03:30:56.861Z,14.60
2019-04-06T03:31:57.109Z,14.60
2019-04-06T03:32:57.122Z,15.50
2019-04-06T03:33:56.979Z,15.50
2019-04-06T03:34:56.933Z,15.50
2019-04-06T03:35:56.947Z,15.50
2019-04-06T03:36:56.995Z,15.50
2019-04-06T03:37:56.859Z,15.50
2019-04-06T03:38:56.927Z,15.50
2019-04-06T03:39:56.928Z,15.50
2019-04-06T03:40:56.939Z,15.50
2019-04-06T03:41:56.873Z,15.50
2019-04-06T03:42:56.840Z,14.50
2019-04-06T03:43:56.910Z,14.50
2019-04-06T03:44:56.833Z,14.50
2019-04-06T03:45:57.068Z,14.50
2019-04-06T03:46:56.840Z,14.50
2019-04-06T03:47:56.994Z,14.50
2019-04-06T03:48:56.910Z,14.50
2019-04-06T03:49:57.054Z,14.50
2019-04-06T03:50:56.902Z,14.50
2019-04-06T03:51:56.906Z,14.50
2019-04-06T03:52:56.908Z,15.80
2019-04-06T03:53:56.912Z,15.80
2019-04-06T03:54:56.891Z,15.80
2019-04-06T03:55:57.030Z,15.80
2019-04-06T03:56:56.848Z,15.80
2019-04-06T03:57:56.907Z,15.80
2019-04-06T03:58:56.900Z,15.80
2019-04-06T03:59:56.914Z,15.80
2019-04-06T04:00:56.911Z,15.80
2019-04-06T04:01:56.899Z,15.80
2019-04-06T04:02:56.978Z,15.80
2019-04-06T04:03:56.845Z,15.99
2019-04-06T04:04:56.869Z,15.99
2019-04-06T04:05:56.856Z,15.99
2019-04-06T04:06:56.917Z,15.99
2019-04-06T04:07:56.870Z,15.99
2019-04-06T04:08:56.853Z,15.99
2019-04-06T04:09:57.091Z,15.99
2019-04-06T04:10:56.849Z,15.99
2019-04-06T04:11:57.312Z,15.99
2019-04-06T04:12:56.922Z,15.99
2019-04-06T04:13:56.916Z,15.60
2019-04-06T04:14:56.891Z,15.60
2019-04-06T04:15:57.662Z,15.60
2019-04-06T04:16:56.806Z,15.60
2019-04-06T04:17:56.801Z,15.60
2019-04-06T04:18:56.847Z,15.60
2019-04-06T04:19:56.825Z,15.60
2019-04-06T04:20:56.909Z,15.60
2019-04-06T04:21:57.092Z,15.60
2019-04-06T04:22:56.928Z,15.60
2019-04-06T04:23:56.902Z,15.50
2019-04-06T04:24:56.967Z,15.50
2019-04-06T04:25:56.967Z,15.50
2019-04-06T04:26:56.853Z,15.50
2019-04-06T04:27:56.922Z,15.50
2019-04-06T04:28:57.148Z,15.50
2019-04-06T04:29:56.942Z,15.50
2019-04-06T04:30:56.919Z,15.50
2019-04-06T04:31:56.970Z,15.50
2019-04-06T04:32:56.968Z,15.50
2019-04-06T04:33:56.972Z,18.90
2019-04-06T04:34:56.844Z,18.90
2019-04-06T04:35:56.929Z,18.90
2019-04-06T04:36:56.967Z,18.90
2019-04-06T04:37:57.168Z,18.90
2019-04-06T04:38:56.959Z,18.90
2019-04-06T04:39:56.850Z,18.90
2019-04-06T04:40:56.847Z,18.90
2019-04-06T04:41:56.961Z,18.90
2019-04-06T04:42:56.959Z,18.90
2019-04-06T04:43:56.908Z,19.70
2019-04-06T04:44:56.948Z,19.70
2019-04-06T04:45:56.992Z,19.70
2019-04-06T04:46:57.164Z,19.70
2019-04-06T04:47:56.911Z,19.70
2019-04-06T04:48:56.986Z,19.70
2019-04-06T04:49:57.091Z,19.70
2019-04-06T04:50:56.967Z,19.70
2019-04-06T04:51:56.971Z,19.70
2019-04-06T04:52:56.890Z,19.70
2019-04-06T04:53:57.181Z,18.20
2019-04-06T04:54:56.973Z,18.20
2019-04-06T04:55:56.859Z,18.20
2019-04-06T04:56:56.991Z,18.20
2019-04-06T04:57:56.977Z,18.20
2019-04-06T04:58:56.958Z,18.20
2019-04-06T04:59:56.894Z,18.20
2019-04-06T05:00:56.922Z,18.20
2019-04-06T05:01:57.154Z,18.20
2019-04-06T05:02:56.995Z,18.20
2019-04-06T05:03:56.957Z,16.40
2019-04-06T05:04:56.957Z,16.40
2019-04-06T05:05:56.929Z,16.40
2019-04-06T05:06:56.893Z,16.40
2019-04-06T05:07:57.092Z,16.40
2019-04-06T05:08:57.017Z,16.40
2019-04-06T05:09:56.960Z,16.40
2019-04-06T05:10:56.963Z,16.40
2019-04-06T05:11:56.968Z,16.40
2019-04-06T05:12:56.897Z,16.40
2019-04-06T05:13:56.936Z,19.50
2019-04-06T05:14:56.904Z,19.50
2019-04-06T05:15:57.073Z,19.50
2019-04-06T05:16:56.965Z,19.50
2019-04-06T05:17:57.003Z,19.50
2019-04-06T05:18:56.897Z,19.50
2019-04-06T05:19:56.975Z,19.50
2019-04-06T05:20:56.976Z,19.50
2019-04-06T05:21:57.125Z,19.50
2019-04-06T05:22:56.897Z,19.50
2019-04-06T05:23:56.906Z,18.10
2019-04-06T05:24:56.972Z,18.10
2019-04-06T05:25:56.973Z,18.10
2019-04-06T05:26:57.020Z,18.10
2019-04-06T05:27:56.907Z,18.10
2019-04-06T05:28:56.981Z,18.10
2019-04-06T05:29:56.906Z,18.10
2019-04-06T05:30:56.974Z,18.10
2019-04-06T05:31:57.072Z,18.10
2019-04-06T05:32:56.942Z,18.10
2019-04-06T05:33:56.931Z,16.90
2019-04-06T05:34:58.398Z,16.90
2019-04-06T05:35:56.994Z,16.90
2019-04-06T05:36:56.918Z,16.90
2019-04-06T05:37:56.920Z,16.90
2019-04-06T05:38:56.937Z,16.90
2019-04-06T05:39:56.925Z,16.90
2019-04-06T05:40:56.925Z,16.90
2019-04-06T05:41:56.995Z,16.90
2019-04-06T05:42:56.998Z,16.90
2019-04-06T05:43:56.915Z,18.00
2019-04-06T05:44:56.935Z,18.00
2019-04-06T05:45:57.015Z,18.00
2019-04-06T05:46:56.894Z,18.00
2019-04-06T05:47:56.954Z,18.00
2019-04-06T05:48:56.872Z,18.00
2019-04-06T05:49:56.889Z,18.00
2019-04-06T05:50:56.986Z,18.00
2019-04-06T05:51:57.031Z,18.00
2019-04-06T05:52:56.978Z,18.00
2019-04-06T05:53:56.950Z,18.80
2019-04-06T05:54:56.992Z,18.80
2019-04-06T05:55:57.028Z,18.80
2019-04-06T05:56:57.005Z,18.80
2019-04-06T05:58:03.506Z,18.80
2019-04-06T05:58:56.951Z,18.80
2019-04-06T05:59:57.074Z,18.80
2019-04-06T06:00:56.998Z,18.80
2019-04-06T06:01:56.926Z,18.80
2019-04-06T06:02:56.999Z,18.80
2019-04-06T06:03:56.934Z,17.90
2019-04-06T06:04:57.119Z,17.90
2019-04-06T06:05:56.937Z,17.90
2019-04-06T06:06:57.107Z,17.90
2019-04-06T06:07:57.010Z,17.90
2019-04-06T06:08:57.004Z,17.90
2019-04-06T06:09:56.938Z,17.90
2019-04-06T06:10:57.004Z,17.90
2019-04-06T06:11:57.036Z,17.90
2019-04-06T06:12:56.933Z,17.90
2019-04-06T06:13:56.861Z,19.00
2019-04-06T06:14:56.945Z,19.00
2019-04-06T06:15:56.896Z,19.00
2019-04-06T06:16:56.953Z,19.00
2019-04-06T06:17:56.913Z,19.00
2019-04-06T06:18:56.943Z,19.00
2019-04-06T06:19:57.146Z,19.00
2019-04-06T06:20:56.840Z,19.00
2019-04-06T06:21:56.861Z,19.00
2019-04-06T06:22:56.875Z,19.00
2019-04-06T06:23:57.026Z,19.90
2019-04-06T06:24:57.040Z,19.90
2019-04-06T06:25:56.978Z,19.90
2019-04-06T06:26:56.975Z,19.90
2019-04-06T06:27:57.064Z,19.90
2019-04-06T06:28:57.068Z,19.90
2019-04-06T06:29:57.031Z,19.90
2019-04-06T06:30:57.043Z,19.90
2019-04-06T06:31:57.100Z,19.90
2019-04-06T06:32:57.017Z,19.90
2019-04-06T06:33:57.040Z,20.20
2019-04-06T06:34:57.055Z,20.20
2019-04-06T06:35:56.969Z,20.20
2019-04-06T06:36:57.092Z,20.20
2019-04-06T06:37:56.974Z,20.20
2019-04-06T06:38:56.965Z,20.20
2019-04-06T06:39:57.063Z,20.20
2019-04-06T06:40:57.046Z,20.20
2019-04-06T06:41:57.039Z,20.20
2019-04-06T06:42:56.976Z,20.20
2019-04-06T06:43:56.936Z,21.90
2019-04-06T06:44:56.983Z,21.90
2019-04-06T06:45:56.993Z,21.90
2019-04-06T06:46:56.987Z,21.90
2019-04-06T06:47:56.975Z,21.90
2019-04-06T06:48:57.059Z,21.90
2019-04-06T06:49:56.934Z,21.90
2019-04-06T06:50:57.051Z,21.90
2019-04-06T06:51:57.145Z,21.90
2019-04-06T06:52:56.998Z,21.90
2019-04-06T06:53:57.043Z,24.80
2019-04-06T06:54:56.962Z,24.80
2019-04-06T06:55:57.053Z,24.80
2019-04-06T06:56:57.146Z,24.80
2019-04-06T06:57:57.035Z,24.80
2019-04-06T06:58:56.970Z,24.80
2019-04-06T06:59:57.038Z,24.80
2019-04-06T07:00:56.966Z,24.80
2019-04-06T07:01:57.038Z,24.80
2019-04-06T07:02:56.966Z,24.80
2019-04-06T07:03:56.997Z,23.60
2019-04-06T07:04:57.061Z,23.60
2019-04-06T07:05:56.982Z,23.60
2019-04-06T07:06:57.007Z,23.60
2019-04-06T07:07:57.019Z,23.60
2019-04-06T07:08:57.125Z,23.60
2019-04-06T07:10:05.101Z,23.60
2019-04-06T07:10:57.280Z,23.60
2019-04-06T07:11:57.155Z,23.60
2019-04-06T07:12:57.158Z,23.60
2019-04-06T07:13:57.066Z,25.80
2019-04-06T07:14:57.050Z,25.80
2019-04-06T07:15:57.048Z,25.80
2019-04-06T07:16:56.986Z,25.80
2019-04-06T07:17:57.052Z,25.80
2019-04-06T07:18:57.131Z,25.80
2019-04-06T07:19:57.166Z,25.80
2019-04-06T07:20:56.987Z,25.80
2019-04-06T07:21:56.983Z,25.80
2019-04-06T07:22:57.057Z,25.80
2019-04-06T07:23:56.998Z,23.00
2019-04-06T07:24:57.062Z,23.00
2019-04-06T07:25:58.939Z,23.00
2019-04-06T07:26:56.954Z,23.00
2019-04-06T07:27:57.023Z,23.00
2019-04-06T07:28:56.965Z,23.00
2019-04-06T07:29:57.063Z,23.00
2019-04-06T07:30:57.006Z,23.00
2019-04-06T07:31:57.134Z,23.00
2019-04-06T07:32:56.973Z,23.00
2019-04-06T07:33:57.073Z,23.90
2019-04-06T07:34:57.017Z,23.90
2019-04-06T07:35:57.076Z,23.90
2019-04-06T07:36:56.971Z,23.90
2019-04-06T07:37:57.009Z,23.90
2019-04-06T07:38:57.030Z,23.90
2019-04-06T07:39:57.085Z,23.90
2019-04-06T07:40:57.083Z,23.90
2019-04-06T07:41:57.090Z,23.90
2019-04-06T07:42:57.089Z,23.90
2019-04-06T07:43:57.018Z,23.30
2019-04-06T07:44:57.073Z,23.30
2019-04-06T07:45:57.073Z,23.30
2019-04-06T07:46:57.009Z,23.30
2019-04-06T07:47:57.091Z,23.30
2019-04-06T07:49:07.934Z,23.30
2019-04-06T07:49:57.072Z,23.30
2019-04-06T07:50:57.006Z,23.30
2019-04-06T07:51:57.075Z,23.30
2019-04-06T07:52:57.005Z,23.30
2019-04-06T07:53:57.008Z,23.20
2019-04-06T07:54:57.077Z,23.20
2019-04-06T07:55:57.140Z,23.20
2019-04-06T07:56:57.079Z,23.20
2019-04-06T07:57:57.007Z,23.20
2019-04-06T07:58:57.222Z,23.20
2019-04-06T07:59:57.086Z,23.20
2019-04-06T08:00:57.090Z,23.20
2019-04-06T08:01:57.012Z,23.20
2019-04-06T08:02:57.081Z,23.20
2019-04-06T08:03:57.022Z,21.50
2019-04-06T08:04:57.026Z,21.50
2019-04-06T08:05:57.099Z,21.50
2019-04-06T08:06:57.098Z,21.50
2019-04-06T08:07:57.031Z,21.50
2019-04-06T08:08:57.089Z,21.50
2019-04-06T08:09:57.111Z,21.50
2019-04-06T08:10:57.115Z,21.50
2019-04-06T08:11:57.029Z,21.50
2019-04-06T08:12:57.105Z,21.50
2019-04-06T08:13:57.001Z,22.10
2019-04-06T08:14:57.539Z,22.10
2019-04-06T08:15:56.982Z,22.10
2019-04-06T08:16:56.979Z,22.10
2019-04-06T08:17:56.994Z,22.10
2019-04-06T08:18:57.000Z,22.10
2019-04-06T08:19:56.975Z,22.10
2019-04-06T08:20:57.025Z,22.10
2019-04-06T08:21:57.043Z,22.10
2019-04-06T08:22:57.073Z,22.10
2019-04-06T08:23:57.284Z,23.40
2019-04-06T08:24:57.138Z,23.40
2019-04-06T08:25:57.238Z,23.40
2019-04-06T08:26:57.056Z,23.40
2019-04-06T08:27:57.122Z,23.40
2019-04-06T08:29:01.786Z,23.40
2019-04-06T08:29:57.117Z,23.40
2019-04-06T08:30:57.042Z,23.40
2019-04-06T08:31:57.042Z,23.40
2019-04-06T08:32:57.121Z,23.40
2019-04-06T08:33:57.135Z,23.20
2019-04-06T08:34:57.038Z,23.20
2019-04-06T08:35:57.180Z,23.20
2019-04-06T08:36:57.046Z,23.20
2019-04-06T08:37:57.148Z,23.20
2019-04-06T08:38:57.061Z,23.20
2019-04-06T08:39:57.187Z,23.20
2019-04-06T08:40:57.038Z,23.20
2019-04-06T08:41:57.112Z,23.20
2019-04-06T08:42:57.139Z,23.20
2019-04-06T08:43:56.936Z,22.00
2019-04-06T08:44:57.002Z,22.00
2019-04-06T08:45:57.140Z,22.00
2019-04-06T08:46:57.045Z,22.00
2019-04-06T08:48:56.989Z,22.00
2019-04-06T08:49:57.061Z,22.00
2019-04-06T08:50:56.998Z,22.00
2019-04-06T08:51:57.180Z,22.00
2019-04-06T08:52:56.977Z,22.00
2019-04-06T08:53:57.125Z,21.70
2019-04-06T08:54:57.063Z,21.70
2019-04-06T08:55:57.051Z,21.70
2019-04-06T08:56:57.050Z,21.70
2019-04-06T08:57:57.134Z,21.70
2019-04-06T08:58:57.049Z,21.70
2019-04-06T08:59:57.122Z,21.70
2019-04-06T09:00:57.053Z,21.70
2019-04-06T09:01:57.055Z,21.70
2019-04-06T09:02:57.147Z,21.70
2019-04-06T09:03:57.067Z,21.20
2019-04-06T09:04:57.139Z,21.20
2019-04-06T09:05:57.139Z,21.20
2019-04-06T09:06:57.147Z,21.20
2019-04-06T09:07:57.090Z,21.20
2019-04-06T09:08:57.074Z,21.20
2019-04-06T09:09:57.304Z,21.20
2019-04-06T09:10:57.163Z,21.20
2019-04-06T09:11:57.205Z,21.20
2019-04-06T09:12:57.099Z,21.20
2019-04-06T09:13:57.168Z,19.90
2019-04-06T09:14:57.147Z,19.90
2019-04-06T09:15:57.160Z,19.90
2019-04-06T09:16:57.150Z,19.90
2019-04-06T09:17:57.153Z,19.90
2019-04-06T09:18:57.317Z,19.90
2019-04-06T09:19:57.156Z,19.90
2019-04-06T09:20:57.102Z,19.90
2019-04-06T09:21:57.208Z,19.90
2019-04-06T09:22:57.246Z,19.90
2019-04-06T09:23:58.735Z,18.80
2019-04-06T09:24:57.117Z,18.80
2019-04-06T09:25:57.215Z,18.80
2019-04-06T09:26:57.028Z,18.80
2019-04-06T09:27:57.066Z,18.80
2019-04-06T09:28:59.446Z,18.80
2019-04-06T09:29:57.127Z,18.80
2019-04-06T09:30:57.037Z,18.80
2019-04-06T09:31:57.012Z,18.80
2019-04-06T09:32:57.209Z,18.80
2019-04-06T09:34:57.148Z,18.90
2019-04-06T09:35:57.077Z,18.90
2019-04-06T09:36:57.298Z,18.90
2019-04-06T09:37:57.085Z,18.90
2019-04-06T09:38:57.356Z,18.90
2019-04-06T09:39:57.152Z,18.90
2019-04-06T09:40:57.361Z,18.90
2019-04-06T09:41:57.161Z,18.90
2019-04-06T09:42:57.087Z,18.90
2019-04-06T09:43:57.268Z,20.60
2019-04-06T09:44:57.066Z,20.60
2019-04-06T09:45:57.201Z,20.60
2019-04-06T09:46:57.043Z,20.60
2019-04-06T09:47:57.036Z,20.60
2019-04-06T09:48:57.092Z,20.60
2019-04-06T09:49:57.127Z,20.60
2019-04-06T09:50:57.160Z,20.60
2019-04-06T09:51:57.145Z,20.60
2019-04-06T09:52:57.164Z,20.60
2019-04-06T09:54:05.739Z,20.90
2019-04-06T09:54:57.103Z,20.90
2019-04-06T09:55:57.355Z,20.90
2019-04-06T09:56:57.126Z,20.90
2019-04-06T09:57:57.073Z,20.90
2019-04-06T09:58:57.193Z,20.90
2019-04-06T09:59:57.193Z,20.90
2019-04-06T10:00:57.091Z,20.90
2019-04-06T10:01:57.070Z,20.90
2019-04-06T10:02:57.186Z,20.90
2019-04-06T10:03:57.141Z,18.99
2019-04-06T10:04:57.363Z,18.99
2019-04-06T10:05:57.455Z,18.99
2019-04-06T10:06:57.082Z,18.99
2019-04-06T10:07:57.188Z,18.99
2019-04-06T10:08:57.119Z,18.99
2019-04-06T10:09:57.222Z,18.99
2019-04-06T10:10:57.194Z,18.99
2019-04-06T10:11:57.141Z,18.99
2019-04-06T10:12:57.084Z,18.99
2019-04-06T10:13:57.427Z,20.40
2019-04-06T10:14:57.247Z,20.40
2019-04-06T10:15:57.178Z,20.40
2019-04-06T10:16:57.102Z,20.40
2019-04-06T10:17:57.187Z,20.40
2019-04-06T10:18:57.103Z,20.40
2019-04-06T10:19:57.109Z,20.40
2019-04-06T10:20:57.497Z,20.40
2019-04-06T10:21:57.119Z,20.40
2019-04-06T10:22:57.413Z,20.40
2019-04-06T10:23:57.118Z,20.40
2019-04-06T10:24:57.479Z,18.10
2019-04-06T10:25:57.201Z,18.10
2019-04-06T10:26:57.131Z,18.10
2019-04-06T10:27:57.201Z,18.10
2019-04-06T10:28:57.126Z,18.10
2019-04-06T10:29:57.204Z,18.10
2019-04-06T10:30:57.213Z,18.10
2019-04-06T10:31:57.220Z,18.10
2019-04-06T10:32:57.214Z,18.10
2019-04-06T10:33:57.454Z,18.10
2019-04-06T10:34:57.116Z,19.80
2019-04-06T10:35:57.496Z,19.80
2019-04-06T10:36:57.195Z,19.80
2019-04-06T10:37:57.126Z,19.80
2019-04-06T10:38:57.197Z,19.80
2019-04-06T10:39:57.124Z,19.80
2019-04-06T10:40:57.206Z,19.80
2019-04-06T10:41:57.129Z,19.80
2019-04-06T10:42:57.381Z,19.80
2019-04-06T10:43:57.205Z,19.80
2019-04-06T10:44:57.126Z,18.99
2019-04-06T10:45:57.265Z,18.99
2019-04-06T10:46:57.205Z,18.99
2019-04-06T10:47:57.137Z,18.99
2019-04-06T10:48:57.206Z,18.99
2019-04-06T10:49:57.271Z,18.99
2019-04-06T10:50:57.300Z,18.99
2019-04-06T10:51:57.136Z,18.99
2019-04-06T10:52:57.204Z,18.99
2019-04-06T10:53:57.340Z,18.99
2019-04-06T10:54:57.148Z,19.20
2019-04-06T10:55:57.227Z,19.20
2019-04-06T10:56:57.185Z,19.20
2019-04-06T10:57:57.225Z,19.20
2019-04-06T10:58:57.273Z,19.20
2019-04-06T11:00:01.426Z,19.20
2019-04-06T11:00:57.167Z,19.20
2019-04-06T11:01:57.241Z,19.20
2019-04-06T11:02:57.224Z,19.20
2019-04-06T11:03:57.160Z,19.20
2019-04-06T11:04:57.142Z,17.40
2019-04-06T11:05:57.108Z,17.40
2019-04-06T11:06:57.164Z,17.40
2019-04-06T11:07:57.146Z,17.40
2019-04-06T11:08:57.113Z,17.40
2019-04-06T11:09:57.116Z,17.40
2019-04-06T11:10:57.169Z,17.40
2019-04-06T11:11:57.292Z,17.40
2019-04-06T11:12:57.089Z,17.40
2019-04-06T11:13:57.359Z,17.40
2019-04-06T11:14:57.155Z,15.90
2019-04-06T11:15:57.223Z,15.90
2019-04-06T11:16:57.223Z,15.90
2019-04-06T11:17:57.157Z,15.90
2019-04-06T11:18:57.223Z,15.90
2019-04-06T11:19:57.368Z,15.90
2019-04-06T11:20:57.225Z,15.90
2019-04-06T11:21:57.159Z,15.90
2019-04-06T11:22:57.227Z,15.90
2019-04-06T11:23:57.227Z,15.90
2019-04-06T11:24:57.398Z,14.00
2019-04-06T11:25:57.160Z,14.00
2019-04-06T11:26:57.227Z,14.00
2019-04-06T11:27:57.228Z,14.00
2019-04-06T11:28:57.180Z,14.00
2019-04-06T11:29:57.132Z,14.00
2019-04-06T11:30:57.231Z,14.00
2019-04-06T11:31:57.117Z,14.00
2019-04-06T11:32:57.265Z,14.00
2019-04-06T11:33:57.239Z,14.00
2019-04-06T11:34:57.187Z,16.30
2019-04-06T11:35:57.279Z,16.30
2019-04-06T11:36:57.260Z,16.30
2019-04-06T11:37:57.176Z,16.30
2019-04-06T11:38:57.257Z,16.30
2019-04-06T11:39:57.266Z,16.30
2019-04-06T11:40:57.252Z,16.30
2019-04-06T11:41:57.193Z,16.30
2019-04-06T11:42:57.326Z,16.30
2019-04-06T11:43:57.186Z,16.30
2019-04-06T11:44:57.174Z,14.50
2019-04-06T11:45:57.143Z,14.50
2019-04-06T11:46:57.212Z,14.50
2019-04-06T11:47:57.192Z,14.50
2019-04-06T11:48:57.238Z,14.50
2019-04-06T11:49:57.192Z,14.50
2019-04-06T11:50:57.316Z,14.50
2019-04-06T11:51:57.242Z,14.50
2019-04-06T11:52:57.256Z,14.50
2019-04-06T11:53:57.179Z,14.50
2019-04-06T11:54:57.253Z,13.40
2019-04-06T11:55:57.187Z,13.40
2019-04-06T11:56:57.529Z,13.40
2019-04-06T11:57:57.715Z,13.40
2019-04-06T11:58:57.181Z,13.40
2019-04-06T11:59:57.355Z,13.40
2019-04-06T12:00:57.266Z,13.40
2019-04-06T12:01:57.248Z,13.40
2019-04-06T12:02:57.266Z,13.40
2019-04-06T12:03:57.187Z,13.40
2019-04-06T12:04:57.506Z,12.90
2019-04-06T12:05:57.284Z,12.90
2019-04-06T12:06:57.163Z,12.90
2019-04-06T12:07:57.505Z,12.90
2019-04-06T12:08:57.359Z,12.90
2019-04-06T12:09:57.272Z,12.90
2019-04-06T12:10:57.244Z,12.90
2019-04-06T12:11:57.302Z,12.90
2019-04-06T12:12:57.223Z,12.90
2019-04-06T12:13:57.290Z,12.90
2019-04-06T12:14:57.207Z,12.40
2019-04-06T12:15:57.290Z,12.40
2019-04-06T12:16:57.261Z,12.40
2019-04-06T12:17:57.205Z,12.40
2019-04-06T12:18:57.276Z,12.40
2019-04-06T12:19:57.368Z,12.40
2019-04-06T12:20:57.252Z,12.40
2019-04-06T12:21:57.401Z,12.40
2019-04-06T12:22:57.243Z,12.40
2019-04-06T12:23:57.237Z,12.40
2019-04-06T12:24:57.223Z,11.80
2019-04-06T12:25:57.285Z,11.80
2019-04-06T12:26:57.284Z,11.80
2019-04-06T12:27:57.215Z,11.80
2019-04-06T12:28:57.276Z,11.80
2019-04-06T12:29:57.221Z,11.80
2019-04-06T12:30:57.227Z,11.80
2019-04-06T12:31:57.290Z,11.80
2019-04-06T12:32:57.287Z,11.80
2019-04-06T12:33:57.231Z,11.80
2019-04-06T12:34:57.242Z,13.99
2019-04-06T12:35:57.286Z,13.99
2019-04-06T12:36:57.157Z,13.99
2019-04-06T12:37:57.153Z,13.99
2019-04-06T12:38:57.255Z,13.99
2019-04-06T12:39:57.268Z,13.99
2019-04-06T12:40:57.193Z,13.99
2019-04-06T12:41:57.167Z,13.99
2019-04-06T12:42:57.373Z,13.99
2019-04-06T12:43:57.246Z,13.99
2019-04-06T12:44:57.627Z,10.60
2019-04-06T12:45:57.305Z,10.60
2019-04-06T12:46:57.617Z,10.60
2019-04-06T12:47:57.367Z,10.60
2019-04-06T12:48:57.309Z,10.60
2019-04-06T12:49:57.301Z,10.60
2019-04-06T12:50:57.228Z,10.60
2019-04-06T12:51:57.333Z,10.60
2019-04-06T12:52:57.302Z,10.60
2019-04-06T12:53:57.309Z,10.60
2019-04-06T12:54:57.312Z,11.70